Time;durP1;ratioP1;P1;durP2;ratioP2;P2;SDS_P1;SDS_P2;PMS_P1;PMS_P2;Temp;Humidity;BMP_temperature;BMP_pressure;BME280_temperature;BME280_humidity;BME280_pressure;Samples;Min_cycle;Max_cycle;Signal;HPM_P1;HPM_P2
2022/06/23 00:00:17;;;;;;;6.10;3.23;;;17.40;99.90;;;;;;5034470;28;20256;-61
2022/06/23 00:02:44;;;;;;;4.20;2.20;;;17.40;99.90;;;;;;5034448;28;20635;-61
2022/06/23 00:05:17;;;;;;;4.47;2.10;;;17.40;99.90;;;;;;5034249;28;20202;-61
2022/06/23 00:07:50;;;;;;;5.13;2.30;;;17.30;99.90;;;;;;5033702;28;20202;-61
2022/06/23 00:10:19;;;;;;;3.73;2.70;;;17.30;99.90;;;;;;5034133;28;20256;-61
2022/06/23 00:12:47;;;;;;;6.73;2.30;;;17.30;99.90;;;;;;5033997;28;20669;-61
2022/06/23 00:15:25;;;;;;;3.13;2.20;;;17.30;99.90;;;;;;5034144;28;20206;-61
2022/06/23 00:17:59;;;;;;;4.90;2.30;;;17.30;99.90;;;;;;5033427;28;20220;-61
2022/06/23 00:20:30;;;;;;;5.17;2.03;;;17.20;99.90;;;;;;5034026;28;20271;-61
2022/06/23 00:23:03;;;;;;;5.33;2.20;;;17.20;99.90;;;;;;5033734;28;20230;-61
2022/06/23 00:25:36;;;;;;;4.20;2.10;;;17.20;99.90;;;;;;5034273;28;20218;-61
2022/06/23 00:28:03;;;;;;;2.50;2.10;;;17.20;99.90;;;;;;5034320;28;20210;-61
2022/06/23 00:30:38;;;;;;;5.73;1.97;;;17.20;99.90;;;;;;5033882;28;20273;-61
2022/06/23 00:33:15;;;;;;;2.20;2.00;;;17.20;99.90;;;;;;5033397;28;20202;-61
2022/06/23 00:35:43;;;;;;;5.70;1.90;;;17.20;99.90;;;;;;5033723;28;20222;-61
2022/06/23 00:38:23;;;;;;;2.00;1.80;;;17.20;99.90;;;;;;5033083;28;20206;-62
2022/06/23 00:40:50;;;;;;;3.57;1.80;;;17.10;99.90;;;;;;5033402;28;20687;-61
2022/06/23 00:43:19;;;;;;;3.20;2.00;;;17.10;99.90;;;;;;5033245;28;20226;-61
2022/06/23 00:45:49;;;;;;;3.97;1.90;;;17.00;99.90;;;;;;5033366;28;20233;-61
2022/06/23 00:48:22;;;;;;;3.27;1.97;;;17.00;99.90;;;;;;5033467;28;20214;-61
2022/06/23 00:50:55;;;;;;;4.07;1.90;;;17.00;99.90;;;;;;5033204;28;20210;-62
2022/06/23 00:53:26;;;;;;;3.30;2.20;;;17.00;99.90;;;;;;5033296;28;20276;-61
2022/06/23 00:55:57;;;;;;;4.30;2.07;;;17.00;99.90;;;;;;5032694;28;20230;-61
2022/06/23 00:58:32;;;;;;;3.70;2.00;;;17.00;99.90;;;;;;5033389;28;20233;-61
2022/06/23 01:01:04;;;;;;;1.90;1.70;;;17.00;99.90;;;;;;5033073;28;20206;-61
2022/06/23 01:03:37;;;;;;;4.87;2.10;;;16.90;99.90;;;;;;5033176;28;20645;-61
2022/06/23 01:06:11;;;;;;;4.20;2.20;;;16.90;99.90;;;;;;5032519;28;20648;-61
2022/06/23 01:08:46;;;;;;;3.87;2.20;;;16.90;99.90;;;;;;5033183;28;20216;-61
2022/06/23 01:11:19;;;;;;;5.27;2.47;;;16.90;99.90;;;;;;5032881;28;20218;-61
2022/06/23 01:13:52;;;;;;;4.93;2.10;;;16.90;99.90;;;;;;5033219;28;20211;-61
2022/06/23 01:16:24;;;;;;;2.37;1.83;;;16.90;99.90;;;;;;5032713;28;20234;-61
2022/06/23 01:18:54;;;;;;;4.27;1.93;;;16.90;99.90;;;;;;5032403;28;20274;-61
2022/06/23 01:21:26;;;;;;;2.63;2.20;;;16.90;99.90;;;;;;5032950;28;20206;-61
2022/06/23 01:24:09;;;;;;;6.03;2.10;;;16.80;99.90;;;;;;5032738;28;20210;-61
2022/06/23 01:27:00;;;;;;;2.20;1.90;;;16.80;99.90;;;;;;5032326;28;20237;-62
2022/06/23 01:29:32;;;;;;;3.37;1.73;;;16.70;99.90;;;;;;5032288;28;20680;-61
2022/06/23 01:32:09;;;;;;;4.13;2.27;;;16.70;99.90;;;;;;5032795;28;20613;-61
2022/06/23 01:34:44;;;;;;;4.77;2.20;;;16.70;99.90;;;;;;5032606;28;20209;-61
2022/06/23 01:37:16;;;;;;;3.67;2.07;;;16.60;99.90;;;;;;5032135;28;20648;-61
2022/06/23 01:39:48;;;;;;;2.93;2.10;;;16.50;99.90;;;;;;5032212;28;20702;-61
2022/06/23 01:42:22;;;;;;;3.57;2.40;;;16.50;99.90;;;;;;5032610;28;20280;-61
2022/06/23 01:44:59;;;;;;;2.83;2.10;;;16.40;99.90;;;;;;5032231;28;20197;-61
2022/06/23 01:47:32;;;;;;;3.67;2.23;;;16.40;99.90;;;;;;5031842;28;20233;-61
2022/06/23 01:50:25;;;;;;;4.40;2.27;;;16.40;99.90;;;;;;5032220;28;20198;-61
2022/06/23 01:53:11;;;;;;;3.20;2.50;;;16.40;99.90;;;;;;5032487;28;20202;-61
2022/06/23 01:55:55;;;;;;;4.57;2.40;;;16.40;99.90;;;;;;5031864;28;20226;-61
2022/06/23 01:58:24;;;;;;;3.03;2.20;;;16.30;99.90;;;;;;5032056;28;20677;-61
2022/06/23 02:00:56;;;;;;;6.27;2.80;;;16.30;99.90;;;;;;5032102;28;20265;-61
2022/06/23 02:03:27;;;;;;;5.27;2.63;;;16.30;99.90;;;;;;5032222;28;20229;-61
2022/06/23 02:06:06;;;;;;;5.80;3.40;;;16.30;99.90;;;;;;5031385;28;20284;-61
2022/06/23 02:08:36;;;;;;;6.77;2.50;;;16.20;99.90;;;;;;5032356;28;20249;-61
2022/06/23 02:11:08;;;;;;;5.23;2.60;;;16.20;99.90;;;;;;5031882;28;20297;-61
2022/06/23 02:13:43;;;;;;;3.80;2.77;;;16.20;99.90;;;;;;5032079;28;20202;-61
2022/06/23 02:16:18;;;;;;;5.13;2.63;;;16.10;99.90;;;;;;5031585;28;20221;-61
2022/06/23 02:18:50;;;;;;;3.17;2.40;;;16.10;99.90;;;;;;5031701;28;20213;-61
2022/06/23 02:21:29;;;;;;;5.37;2.73;;;16.10;99.90;;;;;;5031791;28;20202;-61
2022/06/23 02:24:00;;;;;;;5.47;2.30;;;16.10;99.90;;;;;;5031766;28;20272;-61
2022/06/23 02:26:33;;;;;;;3.50;2.77;;;16.20;99.90;;;;;;5031524;28;20233;-61
2022/06/23 02:29:07;;;;;;;3.73;2.77;;;16.20;99.90;;;;;;5031686;28;20214;-61
2022/06/23 02:31:42;;;;;;;2.77;2.57;;;16.20;99.90;;;;;;5032030;28;20240;-61
2022/06/23 02:34:16;;;;;;;3.83;2.70;;;16.20;99.90;;;;;;5031919;28;20283;-61
2022/06/23 02:37:05;;;;;;;5.70;2.40;;;16.20;99.90;;;;;;5031845;28;20221;-61
2022/06/23 02:39:38;;;;;;;4.87;3.03;;;16.30;99.90;;;;;;5031804;28;20210;-61
2022/06/23 02:42:15;;;;;;;4.70;2.90;;;16.30;99.90;;;;;;5031462;28;20226;-60
2022/06/23 02:45:00;;;;;;;2.87;2.57;;;16.30;99.90;;;;;;5031857;28;20257;-60
2022/06/23 02:47:48;;;;;;;2.90;2.30;;;16.20;99.90;;;;;;5031276;28;20237;-60
2022/06/23 02:50:30;;;;;;;4.33;2.90;;;16.20;99.90;;;;;;5031356;28;20676;-60
2022/06/23 02:53:27;;;;;;;6.50;2.93;;;16.20;99.90;;;;;;5031800;28;20202;-60
2022/06/23 02:56:21;;;;;;;4.47;3.07;;;16.20;99.90;;;;;;5031145;28;20234;-60
2022/06/23 02:58:54;;;;;;;5.33;3.20;;;16.20;99.90;;;;;;5031465;28;20555;-61
2022/06/23 03:01:26;;;;;;;3.57;2.60;;;16.20;99.90;;;;;;5034021;28;20280;-61
2022/06/23 03:04:02;;;;;;;6.13;3.00;;;16.20;99.90;;;;;;5035576;28;20214;-61
2022/06/23 03:06:34;;;;;;;6.30;3.00;;;16.20;99.90;;;;;;5034732;28;20579;-61
2022/06/23 03:09:06;;;;;;;4.43;3.23;;;16.10;99.90;;;;;;5035666;28;20236;-61
2022/06/23 03:11:55;;;;;;;4.47;3.23;;;16.00;99.90;;;;;;5035497;28;20344;-60
2022/06/23 03:14:31;;;;;;;6.93;3.50;;;16.00;99.90;;;;;;5035481;28;20206;-60
2022/06/23 03:17:04;;;;;;;3.60;3.17;;;15.90;99.90;;;;;;5034967;28;20252;-60
2022/06/23 03:19:38;;;;;;;5.57;3.43;;;15.90;99.90;;;;;;5034969;28;20743;-61
2022/06/23 03:22:09;;;;;;;4.97;3.70;;;15.90;99.90;;;;;;5035210;28;20214;-61
2022/06/23 03:24:42;;;;;;;3.83;3.43;;;15.90;99.90;;;;;;5035127;28;20216;-61
2022/06/23 03:27:19;;;;;;;6.40;3.53;;;15.80;99.90;;;;;;5034630;28;20288;-60
2022/06/23 03:29:52;;;;;;;7.73;3.60;;;15.90;99.90;;;;;;5034730;28;20772;-60
2022/06/23 03:32:23;;;;;;;4.47;3.50;;;15.90;99.90;;;;;;5034699;28;20210;-60
2022/06/23 03:35:00;;;;;;;7.13;3.73;;;15.80;99.90;;;;;;5034651;28;20210;-60
2022/06/23 03:37:44;;;;;;;4.13;3.20;;;15.80;99.90;;;;;;5034464;28;20234;-61
2022/06/23 03:43:12;;;;;;;7.93;3.60;;;15.70;99.90;;;;;;5034352;28;20245;-60
2022/06/23 03:45:45;;;;;;;5.87;3.30;;;15.80;99.90;;;;;;5034475;28;20228;-60
2022/06/23 03:48:17;;;;;;;4.03;3.50;;;15.80;99.90;;;;;;5034262;28;20206;-61
2022/06/23 03:50:49;;;;;;;3.63;3.30;;;15.80;99.90;;;;;;5034250;28;20210;-60
2022/06/23 03:53:20;;;;;;;4.87;3.47;;;15.80;99.90;;;;;;5034524;28;20265;-61
2022/06/23 03:55:51;;;;;;;7.30;2.97;;;15.80;99.90;;;;;;5034402;28;20288;-61
2022/06/23 03:58:21;;;;;;;6.77;3.60;;;15.90;99.90;;;;;;5034199;28;20214;-60
2022/06/23 04:00:58;;;;;;;6.20;3.63;;;15.90;99.90;;;;;;5034350;28;20210;-60
2022/06/23 04:03:30;;;;;;;3.50;3.20;;;15.90;99.90;;;;;;5033790;28;20218;-61
2022/06/23 04:06:21;;;;;;;5.00;3.10;;;16.00;99.90;;;;;;5034002;28;20288;-61
2022/06/23 04:08:56;;;;;;;6.07;2.93;;;16.00;99.90;;;;;;5033834;28;20681;-61
2022/06/23 04:11:46;;;;;;;4.70;3.23;;;16.10;99.90;;;;;;5033699;28;20205;-67
2022/06/23 04:14:38;;;;;;;3.53;2.80;;;16.20;99.90;;;;;;5034040;28;20203;-60
2022/06/23 04:17:21;;;;;;;5.40;2.93;;;16.30;99.90;;;;;;5026719;28;20235;-60
2022/06/23 04:19:51;;;;;;;3.10;2.77;;;16.40;99.90;;;;;;5034086;28;20285;-60
2022/06/23 04:22:27;;;;;;;3.63;2.90;;;16.40;99.90;;;;;;5034023;28;20214;-60
2022/06/23 04:24:59;;;;;;;4.50;3.30;;;16.40;99.90;;;;;;5034067;28;20194;-60
2022/06/23 04:27:29;;;;;;;3.03;2.73;;;16.50;99.90;;;;;;5033503;28;20637;-59
2022/06/23 04:29:59;;;;;;;4.33;3.20;;;16.60;99.90;;;;;;5034050;28;20232;-59
2022/06/23 04:32:28;;;;;;;5.97;2.90;;;16.60;99.90;;;;;;5034350;28;20225;-60
2022/06/23 04:35:00;;;;;;;5.00;3.27;;;16.60;99.90;;;;;;5033915;28;20655;-60
2022/06/23 04:37:35;;;;;;;6.03;3.17;;;16.60;99.90;;;;;;5039263;28;20236;-60
2022/06/23 04:40:09;;;;;;;4.83;3.13;;;16.70;99.90;;;;;;5046640;28;20205;-60
2022/06/23 04:42:44;;;;;;;6.27;3.60;;;16.80;99.90;;;;;;5033291;28;20668;-60
2022/06/23 04:45:37;;;;;;;3.70;3.30;;;16.80;99.90;;;;;;5033087;28;20263;-60
2022/06/23 04:48:10;;;;;;;6.10;3.87;;;16.90;99.90;;;;;;5026310;28;20222;-60
2022/06/23 04:50:44;;;;;;;9.00;5.10;;;17.00;99.90;;;;;;5033205;28;20236;-60
2022/06/23 04:53:20;;;;;;;6.93;4.97;;;17.00;99.90;;;;;;5032901;28;20248;-60
2022/06/23 04:56:01;;;;;;;11.10;6.37;;;17.10;99.90;;;;;;5033333;28;20237;-60
2022/06/23 04:58:29;;;;;;;12.80;6.43;;;17.10;99.90;;;;;;5032502;28;20264;-60
2022/06/23 05:00:56;;;;;;;8.73;6.77;;;17.20;99.90;;;;;;5033137;28;20258;-60
2022/06/23 05:03:32;;;;;;;9.13;6.23;;;17.20;99.90;;;;;;5032475;28;20636;-60
2022/06/23 05:06:04;;;;;;;7.97;6.07;;;17.30;99.90;;;;;;5032928;28;20226;-61
2022/06/23 05:08:37;;;;;;;9.50;5.50;;;17.30;99.90;;;;;;5032372;28;20232;-60
2022/06/23 05:11:11;;;;;;;9.37;6.57;;;17.40;99.90;;;;;;5033016;28;20599;-59
2022/06/23 05:13:42;;;;;;;9.53;5.30;;;17.40;99.90;;;;;;5032777;28;20232;-59
2022/06/23 05:16:13;;;;;;;8.23;5.10;;;17.40;99.90;;;;;;5032191;28;20230;-59
2022/06/23 05:18:45;;;;;;;9.97;5.20;;;17.60;99.90;;;;;;5032211;28;20222;-59
2022/06/23 05:21:18;;;;;;;9.30;5.30;;;17.70;99.90;;;;;;5045753;28;20664;-61
2022/06/23 05:23:53;;;;;;;6.97;4.77;;;17.70;99.90;;;;;;5051712;28;20226;-63
2022/06/23 05:26:25;;;;;;;7.80;4.23;;;17.80;99.90;;;;;;5051473;28;20235;-63
2022/06/23 05:28:56;;;;;;;4.10;3.70;;;17.80;99.90;;;;;;5051917;28;20228;-63
2022/06/23 05:31:28;;;;;;;6.20;3.90;;;17.90;99.90;;;;;;5052261;28;20577;-63
2022/06/23 05:34:01;;;;;;;5.60;2.93;;;18.00;99.90;;;;;;5052551;28;20289;-63
2022/06/23 05:36:32;;;;;;;4.07;3.50;;;18.10;99.90;;;;;;5051687;28;20452;-62
2022/06/23 05:39:05;;;;;;;4.57;3.33;;;18.20;99.90;;;;;;5051804;28;20271;-62
2022/06/23 05:41:36;;;;;;;7.20;3.57;;;18.30;99.90;;;;;;5051999;28;20255;-62
2022/06/23 05:44:08;;;;;;;8.23;3.50;;;18.50;99.90;;;;;;5051872;28;20225;-62
2022/06/23 05:46:40;;;;;;;4.70;3.17;;;18.60;99.90;;;;;;5051950;28;20645;-63
2022/06/23 05:49:16;;;;;;;6.00;3.30;;;18.70;99.90;;;;;;5051725;28;20296;-64
2022/06/23 05:51:51;;;;;;;6.67;3.10;;;18.90;99.90;;;;;;5051813;28;20296;-63
2022/06/23 05:54:24;;;;;;;5.03;3.30;;;18.90;99.90;;;;;;5051597;28;20201;-62
2022/06/23 05:56:54;;;;;;;5.27;3.23;;;19.10;99.90;;;;;;5051582;28;20229;-63
2022/06/23 05:59:26;;;;;;;7.07;3.20;;;19.30;99.90;;;;;;5051372;28;20213;-64
2022/06/23 06:01:58;;;;;;;4.03;2.90;;;19.50;99.90;;;;;;5051723;28;20266;-65
2022/06/23 06:04:29;;;;;;;5.27;3.10;;;19.70;99.90;;;;;;5051525;28;20241;-62
2022/06/23 06:06:56;;;;;;;3.40;2.43;;;19.80;99.90;;;;;;5046304;28;20252;-62
2022/06/23 06:09:40;;;;;;;4.60;2.17;;;20.00;99.90;;;;;;5048113;28;20205;-63
2022/06/23 06:12:11;;;;;;;7.00;2.53;;;20.20;99.90;;;;;;5050814;28;20695;-64
2022/06/23 06:14:43;;;;;;;4.57;2.33;;;20.30;99.90;;;;;;5051162;28;20652;-63
2022/06/23 06:17:16;;;;;;;3.93;2.53;;;20.40;99.90;;;;;;5050458;28;20771;-62
2022/06/23 06:19:43;;;;;;;4.50;2.50;;;20.60;99.90;;;;;;5050772;28;20209;-65
2022/06/23 06:22:23;;;;;;;3.37;2.60;;;20.70;99.90;;;;;;5031179;28;20210;-64
2022/06/23 06:24:54;;;;;;;2.30;2.10;;;20.80;99.90;;;;;;5031291;28;20780;-65
2022/06/23 06:27:21;;;;;;;5.13;2.30;;;21.00;99.90;;;;;;5030853;28;20230;-64
2022/06/23 06:29:50;;;;;;;4.10;2.67;;;21.10;99.90;;;;;;5030615;28;20646;-63
2022/06/23 06:32:28;;;;;;;5.70;2.43;;;21.20;99.90;;;;;;5031519;28;20252;-63
2022/06/23 06:34:59;;;;;;;4.77;2.63;;;21.40;99.90;;;;;;5032898;28;20210;-64
2022/06/23 06:37:32;;;;;;;4.93;2.47;;;21.60;99.90;;;;;;5034868;28;20782;-62
2022/06/23 06:40:03;;;;;;;2.53;2.07;;;21.70;99.90;;;;;;5036753;28;20206;-62
2022/06/23 06:42:34;;;;;;;5.73;2.43;;;21.90;99.90;;;;;;5055228;28;20743;-64
2022/06/23 06:45:05;;;;;;;5.63;2.50;;;22.00;99.90;;;;;;5055076;28;20221;-62
2022/06/23 06:47:35;;;;;;;3.90;2.50;;;22.10;99.90;;;;;;5054767;28;20586;-63
2022/06/23 06:50:08;;;;;;;5.23;2.70;;;22.30;99.90;;;;;;5054913;28;20209;-62
2022/06/23 06:52:36;;;;;;;5.50;3.00;;;22.50;99.90;;;;;;5054998;28;20205;-62
2022/06/23 06:55:08;;;;;;;3.40;2.80;;;22.60;99.90;;;;;;5055252;28;20204;-64
2022/06/23 06:57:40;;;;;;;6.60;2.93;;;22.70;99.90;;;;;;5054461;28;20221;-61
2022/06/23 07:00:13;;;;;;;3.73;2.73;;;22.90;99.90;;;;;;5054778;28;20282;-60
2022/06/23 07:02:43;;;;;;;4.73;2.80;;;23.00;99.90;;;;;;5054594;28;20202;-62
2022/06/23 07:05:20;;;;;;;3.83;2.50;;;23.20;99.90;;;;;;5054333;28;20233;-62
2022/06/23 07:07:51;;;;;;;7.53;3.17;;;23.40;99.90;;;;;;5054240;28;20205;-66
2022/06/23 07:10:25;;;;;;;5.00;2.67;;;23.60;99.90;;;;;;5054037;28;20692;-68
2022/06/23 07:12:55;;;;;;;5.17;3.00;;;23.80;99.90;;;;;;5054471;28;20259;-66
2022/06/23 07:15:30;;;;;;;5.00;2.30;;;24.00;99.90;;;;;;5054549;28;20194;-66
2022/06/23 07:18:04;;;;;;;6.00;3.30;;;24.10;99.90;;;;;;5053895;28;20304;-65
2022/06/23 07:20:40;;;;;;;5.17;2.67;;;24.40;99.90;;;;;;5047729;28;20206;-63
2022/06/23 07:23:14;;;;;;;4.20;3.13;;;24.60;99.90;;;;;;5034391;28;20676;-63
2022/06/23 07:25:46;;;;;;;3.73;2.47;;;24.80;99.90;;;;;;5034189;28;20222;-67
2022/06/23 07:28:18;;;;;;;6.97;3.47;;;25.00;99.90;;;;;;5033538;28;20210;-65
2022/06/23 07:30:50;;;;;;;5.03;3.03;;;25.20;99.90;;;;;;5034314;28;20263;-65
2022/06/23 07:33:22;;;;;;;5.50;3.40;;;25.30;99.90;;;;;;5034231;28;20190;-65
2022/06/23 07:35:55;;;;;;;6.03;3.20;;;25.50;99.90;;;;;;5034287;28;20651;-66
2022/06/23 07:38:26;;;;;;;5.00;3.33;;;25.70;99.90;;;;;;5034020;28;20249;-66
2022/06/23 07:41:01;;;;;;;4.00;3.20;;;25.80;99.90;;;;;;5034115;28;20632;-66
2022/06/23 07:43:35;;;;;;;5.40;3.37;;;26.00;99.90;;;;;;5033964;28;20213;-65
2022/06/23 07:46:02;;;;;;;4.73;3.13;;;26.10;99.90;;;;;;5032916;28;20268;-64
2022/06/23 07:48:33;;;;;;;5.33;3.10;;;26.30;99.90;;;;;;5033718;28;20210;-63
2022/06/23 07:51:02;;;;;;;4.60;3.07;;;26.50;99.90;;;;;;5033915;28;20203;-63
2022/06/23 07:53:32;;;;;;;8.17;3.70;;;26.60;99.90;;;;;;5034099;28;20217;-62
2022/06/23 07:56:00;;;;;;;4.70;3.30;;;26.60;99.90;;;;;;5033858;28;20230;-63
2022/06/23 07:58:30;;;;;;;7.50;3.67;;;26.80;99.90;;;;;;5033288;28;20213;-63
2022/06/23 08:01:03;;;;;;;5.00;3.23;;;26.80;99.90;;;;;;5033925;28;20301;-63
2022/06/23 08:03:36;;;;;;;5.33;4.07;;;26.90;99.90;;;;;;5033397;28;20688;-68
2022/06/23 08:06:08;;;;;;;5.53;3.20;;;27.10;99.90;;;;;;5033399;28;20763;-65
2022/06/23 08:08:38;;;;;;;5.43;3.23;;;27.30;99.90;;;;;;5032936;28;20265;-65
2022/06/23 08:14:00;;;;;;;5.03;3.50;;;27.40;99.90;;;;;;5033247;28;20201;-65
2022/06/23 08:19:23;;;;;;;5.27;3.20;;;27.30;99.90;;;;;;5032970;28;20591;-62
2022/06/23 08:21:53;;;;;;;6.07;3.37;;;27.10;99.90;;;;;;5032940;28;20233;-62
2022/06/23 08:24:23;;;;;;;5.13;3.53;;;27.30;99.90;;;;;;5033556;28;20232;-63
2022/06/23 08:26:54;;;;;;;7.70;3.67;;;27.50;99.90;;;;;;5032644;28;20264;-62
2022/06/23 08:29:25;;;;;;;5.40;3.10;;;27.70;99.90;;;;;;5033143;28;20264;-63
2022/06/23 08:31:52;;;;;;;4.53;3.40;;;28.00;99.90;;;;;;5032654;28;20214;-65
2022/06/23 08:34:18;;;;;;;6.80;3.40;;;28.20;99.90;;;;;;5033060;28;20665;-64
2022/06/23 08:36:47;;;;;;;6.73;3.57;;;28.00;99.90;;;;;;5032626;28;20880;-66
2022/06/23 08:39:18;;;;;;;5.57;3.50;;;28.10;99.90;;;;;;5033214;28;20264;-62
2022/06/23 08:41:55;;;;;;;3.97;3.23;;;28.20;99.90;;;;;;5032902;28;20293;-65
2022/06/23 08:44:32;;;;;;;4.67;3.60;;;28.20;99.90;;;;;;5032387;28;20221;-65
2022/06/23 08:47:05;;;;;;;5.07;3.27;;;28.30;99.90;;;;;;5032663;28;20238;-62
2022/06/23 08:49:36;;;;;;;5.30;3.30;;;28.50;99.90;;;;;;5032249;28;20222;-62
2022/06/23 08:52:09;;;;;;;5.80;3.47;;;28.50;99.90;;;;;;5032850;28;20206;-63
2022/06/23 08:54:41;;;;;;;7.83;3.43;;;28.40;99.90;;;;;;5032382;28;20706;-62
2022/06/23 08:57:15;;;;;;;7.90;3.30;;;28.50;99.90;;;;;;5031484;28;20226;-64
2022/06/23 08:59:47;;;;;;;4.97;3.83;;;28.60;99.90;;;;;;5031863;28;20240;-64
2022/06/23 09:02:19;;;;;;;8.50;3.43;;;28.40;99.90;;;;;;5032176;28;20202;-63
2022/06/23 09:04:54;;;;;;;7.13;3.17;;;28.40;99.90;;;;;;5032607;28;20252;-61
2022/06/23 09:07:33;;;;;;;5.63;3.13;;;28.50;99.90;;;;;;5031509;28;20222;-60
2022/06/23 09:10:09;;;;;;;4.33;3.50;;;28.50;99.90;;;;;;5032639;28;20210;-63
2022/06/23 09:12:46;;;;;;;6.60;3.13;;;28.60;99.90;;;;;;5051659;28;20626;-63
2022/06/23 09:15:45;;;;;;;4.70;3.13;;;28.60;99.90;;;;;;5052469;28;20224;-62
2022/06/23 09:18:37;;;;;;;3.60;2.77;;;28.80;99.90;;;;;;5050952;28;20240;-63
2022/06/23 09:21:56;;;;;;;5.63;3.30;;;28.90;99.90;;;;;;5052251;28;20209;-62
2022/06/23 09:24:40;;;;;;;5.37;3.07;;;28.90;99.90;;;;;;4989719;28;20584;-64
2022/06/23 09:27:15;;;;;;;3.57;3.10;;;29.00;99.90;;;;;;4989868;28;20231;-64
2022/06/23 09:29:55;;;;;;;5.70;2.43;;;29.10;99.90;;;;;;5027169;28;20245;-63
2022/06/23 09:32:34;;;;;;;5.23;3.07;;;29.00;99.90;;;;;;5051874;28;20580;-63
2022/06/23 09:35:19;;;;;;;4.53;3.23;;;29.00;99.90;;;;;;5051954;28;20639;-64
2022/06/23 09:38:16;;;;;;;7.00;3.07;;;29.00;99.90;;;;;;5051415;28;20608;-65
2022/06/23 09:40:58;;;;;;;6.60;3.33;;;28.90;99.90;;;;;;5051421;28;20210;-64
2022/06/23 09:44:12;;;;;;;7.53;3.07;;;29.10;99.90;;;;;;5051693;28;20279;-65
2022/06/23 09:46:57;;;;;;;7.33;3.47;;;29.10;99.90;;;;;;5050965;28;20712;-64
2022/06/23 09:49:49;;;;;;;4.87;3.20;;;29.20;99.90;;;;;;5051257;28;20283;-62
2022/06/23 09:52:54;;;;;;;3.73;3.13;;;29.20;99.90;;;;;;5051637;28;20236;-63
2022/06/23 09:55:42;;;;;;;9.03;3.33;;;29.40;99.90;;;;;;5020476;28;20254;-62
2022/06/23 09:58:57;;;;;;;7.00;3.20;;;29.40;99.90;;;;;;5050869;28;20205;-62
2022/06/23 10:01:32;;;;;;;8.50;3.40;;;29.40;99.90;;;;;;5034625;28;20230;-61
2022/06/23 10:04:12;;;;;;;5.07;3.50;;;29.60;99.90;;;;;;5050762;28;20791;-61
2022/06/23 10:07:06;;;;;;;8.73;3.50;;;29.70;99.90;;;;;;5051097;28;20351;-61
2022/06/23 10:09:56;;;;;;;4.50;3.37;;;29.60;99.90;;;;;;5048105;28;20268;-60
2022/06/23 10:12:42;;;;;;;5.43;3.17;;;29.50;99.90;;;;;;5051043;28;20263;-61
2022/06/23 10:15:22;;;;;;;5.47;2.90;;;29.50;99.90;;;;;;5051304;28;20205;-61
2022/06/23 10:18:07;;;;;;;7.47;3.33;;;29.50;99.90;;;;;;5050465;28;20267;-60
2022/06/23 10:20:50;;;;;;;3.73;3.10;;;29.70;99.90;;;;;;5050801;28;20214;-60
2022/06/23 10:23:40;;;;;;;3.60;2.90;;;29.80;99.90;;;;;;5051025;28;20202;-61
2022/06/23 10:26:18;;;;;;;7.45;3.08;;;29.90;99.90;;;;;;5050733;28;20236;-59
2022/06/23 10:29:19;;;;;;;4.00;3.13;;;30.10;99.90;;;;;;5050032;28;20210;-59
2022/06/23 10:32:13;;;;;;;3.80;3.20;;;29.90;99.90;;;;;;5052041;28;20894;-64
2022/06/23 10:34:57;;;;;;;3.60;3.30;;;29.70;99.90;;;;;;5049168;28;20210;-59
2022/06/23 10:37:33;;;;;;;3.67;3.00;;;29.80;99.90;;;;;;5050658;28;20222;-62
2022/06/23 10:40:25;;;;;;;4.50;3.20;;;29.80;99.90;;;;;;5050064;28;20621;-64
2022/06/23 10:43:03;;;;;;;4.90;3.30;;;29.80;99.90;;;;;;5050749;28;20213;-63
2022/06/23 10:45:39;;;;;;;6.07;3.30;;;30.00;99.90;;;;;;5049943;28;20703;-66
2022/06/23 10:48:47;;;;;;;5.75;3.40;;;30.10;99.90;;;;;;5050763;28;20258;-65
2022/06/23 10:51:27;;;;;;;5.18;3.75;;;30.00;99.90;;;;;;5019429;28;20228;-66
2022/06/23 10:54:23;;;;;;;4.53;3.20;;;30.00;99.90;;;;;;5050289;28;20217;-67
2022/06/23 10:57:04;;;;;;;4.20;3.30;;;29.70;99.90;;;;;;5044856;28;20233;-64
2022/06/23 10:59:44;;;;;;;3.05;2.75;;;30.00;99.90;;;;;;5050805;28;20312;-63
2022/06/23 11:02:51;;;;;;;5.40;2.88;;;30.20;99.90;;;;;;5050152;28;20209;-63
2022/06/23 11:05:33;;;;;;;3.03;2.58;;;30.10;99.90;;;;;;5050418;28;20253;-62
2022/06/23 11:08:13;;;;;;;3.33;2.72;;;30.20;99.90;;;;;;5050176;28;20672;-64
2022/06/23 11:10:55;;;;;;;5.40;3.67;;;30.10;99.90;;;;;;5050478;28;20197;-65
2022/06/23 11:13:33;;;;;;;3.88;2.90;;;30.20;99.90;;;;;;5050554;28;20213;-64
2022/06/23 11:16:09;;;;;;;5.40;3.00;;;30.30;99.90;;;;;;5050010;28;20344;-66
2022/06/23 11:18:49;;;;;;;3.17;2.87;;;30.00;99.90;;;;;;5050221;28;20267;-64
2022/06/23 11:21:29;;;;;;;5.25;2.75;;;30.10;99.90;;;;;;5051317;28;20201;-65
2022/06/23 11:24:04;;;;;;;5.82;3.17;;;30.20;99.90;;;;;;5054807;28;20189;-66
2022/06/23 11:26:45;;;;;;;5.28;2.55;;;30.40;99.90;;;;;;5053772;28;20233;-67
2022/06/23 11:29:35;;;;;;;5.78;3.10;;;30.40;99.90;;;;;;5053481;28;20209;-63
2022/06/23 11:32:16;;;;;;;4.20;2.88;;;30.30;99.90;;;;;;5054599;28;20197;-62
2022/06/23 11:35:01;;;;;;;5.80;3.63;;;30.40;99.90;;;;;;5053839;28;20212;-63
2022/06/23 11:37:46;;;;;;;7.40;3.33;;;30.40;99.90;;;;;;5053779;28;20312;-62
2022/06/23 11:40:39;;;;;;;4.55;2.88;;;30.50;99.90;;;;;;5050261;28;20202;-63
2022/06/23 11:43:18;;;;;;;4.93;2.88;;;30.40;99.90;;;;;;5033887;28;20210;-63
2022/06/23 11:45:57;;;;;;;5.80;3.35;;;30.50;99.90;;;;;;5033735;28;20226;-64
2022/06/23 11:48:44;;;;;;;3.30;3.00;;;30.70;99.90;;;;;;5055439;28;20278;-63
2022/06/23 11:51:28;;;;;;;3.05;2.70;;;30.80;99.90;;;;;;5044309;28;20239;-63
2022/06/23 11:54:10;;;;;;;3.53;2.92;;;30.70;99.90;;;;;;5054553;28;20202;-64
2022/06/23 11:56:52;;;;;;;5.63;2.85;;;30.90;99.90;;;;;;5052996;28;20295;-65
2022/06/23 11:59:32;;;;;;;5.20;3.00;;;30.80;99.90;;;;;;5053371;28;20655;-63
2022/06/23 12:01:58;;;;;;;6.50;3.00;;;30.80;99.90;;;;;;5035028;28;20215;-63
2022/06/23 12:04:45;;;;;;;4.82;3.15;;;30.80;99.90;;;;;;5033325;28;20574;-66
2022/06/23 12:07:26;;;;;;;3.65;3.10;;;30.80;99.90;;;;;;5033842;28;20634;-66
2022/06/23 12:10:01;;;;;;;5.22;2.80;;;30.80;99.90;;;;;;5032517;28;20687;-62
2022/06/23 12:12:29;;;;;;;4.35;2.80;;;30.70;99.90;;;;;;5033483;28;20214;-62
2022/06/23 12:14:57;;;;;;;4.65;2.83;;;30.80;99.90;;;;;;5032643;28;20206;-62
2022/06/23 12:17:28;;;;;;;4.68;2.90;;;30.90;99.90;;;;;;5032873;28;20230;-62
2022/06/23 12:20:03;;;;;;;6.05;3.10;;;31.00;99.90;;;;;;5032879;28;20206;-62
2022/06/23 12:22:36;;;;;;;4.10;3.70;;;31.10;99.90;;;;;;5033069;28;20703;-62
2022/06/23 12:25:16;;;;;;;3.20;2.90;;;31.20;99.90;;;;;;5033244;28;20234;-66
2022/06/23 12:27:50;;;;;;;7.38;3.30;;;31.30;99.90;;;;;;5032475;28;20297;-62
2022/06/23 12:30:19;;;;;;;3.60;3.13;;;31.40;99.90;;;;;;5033415;28;20643;-66
2022/06/23 12:32:54;;;;;;;5.00;3.53;;;31.10;99.90;;;;;;5033063;28;20610;-62
2022/06/23 12:35:28;;;;;;;3.95;2.78;;;31.10;99.90;;;;;;5033343;28;20213;-69
2022/06/23 12:38:03;;;;;;;6.10;2.90;;;31.10;99.90;;;;;;5032638;28;20272;-70
2022/06/23 12:40:36;;;;;;;5.38;3.15;;;31.30;99.90;;;;;;5032658;28;20216;-63
2022/06/23 12:43:19;;;;;;;3.97;2.75;;;31.30;99.90;;;;;;5033770;28;20271;-64
2022/06/23 12:46:03;;;;;;;3.67;2.88;;;31.20;99.90;;;;;;5033724;28;20680;-64
2022/06/23 12:48:51;;;;;;;5.38;3.08;;;31.20;99.90;;;;;;5033268;28;20585;-63
2022/06/23 12:51:36;;;;;;;4.07;2.72;;;31.10;99.90;;;;;;5033292;28;20211;-64
2022/06/23 12:54:17;;;;;;;6.25;3.00;;;31.20;99.90;;;;;;5033042;28;20237;-64
2022/06/23 12:57:13;;;;;;;4.05;2.88;;;31.20;99.90;;;;;;5032611;28;20268;-64
2022/06/23 12:59:45;;;;;;;3.75;2.95;;;31.20;99.90;;;;;;5032836;28;20301;-64
2022/06/23 13:02:22;;;;;;;4.72;3.03;;;31.20;99.90;;;;;;5033462;28;20202;-64
2022/06/23 13:04:56;;;;;;;5.30;3.25;;;31.20;99.90;;;;;;5033292;28;20673;-64
2022/06/23 13:07:30;;;;;;;6.68;3.10;;;31.20;99.90;;;;;;5032851;28;20280;-65
2022/06/23 13:10:01;;;;;;;4.30;2.97;;;31.20;99.90;;;;;;5033173;28;20214;-64
2022/06/23 13:12:33;;;;;;;4.00;2.63;;;31.20;99.90;;;;;;5032906;28;20206;-65
2022/06/23 13:15:05;;;;;;;3.22;2.78;;;31.40;99.90;;;;;;5032815;28;20813;-65
2022/06/23 13:17:41;;;;;;;4.47;2.90;;;31.40;99.90;;;;;;5032123;28;20234;-64
2022/06/23 13:20:19;;;;;;;3.58;3.10;;;31.40;99.90;;;;;;5032852;28;20766;-65
2022/06/23 13:22:55;;;;;;;5.95;2.60;;;31.30;99.90;;;;;;5032664;28;20206;-65
2022/06/23 13:25:26;;;;;;;5.25;3.50;;;31.20;99.90;;;;;;5032660;28;20230;-64
2022/06/23 13:27:55;;;;;;;3.75;2.70;;;31.20;99.90;;;;;;5032176;28;20265;-64
2022/06/23 13:30:26;;;;;;;3.63;3.10;;;31.30;99.90;;;;;;5032509;28;20213;-64
2022/06/23 13:33:04;;;;;;;4.78;3.05;;;31.30;99.90;;;;;;5032478;28;20210;-65
2022/06/23 13:35:35;;;;;;;5.10;3.42;;;31.30;99.90;;;;;;5032568;28;20285;-65
2022/06/23 13:38:15;;;;;;;8.63;3.50;;;31.00;99.90;;;;;;5032065;28;20999;-64
2022/06/23 13:40:47;;;;;;;4.68;3.20;;;30.50;99.90;;;;;;5032539;28;20244;-65
2022/06/23 13:43:22;;;;;;;3.85;2.90;;;30.30;99.90;;;;;;5032380;28;20218;-64